Time;durP1;ratioP1;P1;durP2;ratioP2;P2;SDS_P1;SDS_P2;PMS_P1;PMS_P2;Temp;Humidity;BMP_temperature;BMP_pressure;BME280_temperature;BME280_humidity;BME280_pressure;Samples;Min_cycle;Max_cycle;Signal;HPM_P1;HPM_P2
2021/05/15 00:01:42;;;;;;;13.63;7.18;;;;;;;8.33;91.99;100855.25;5029289;28;20058;-46
2021/05/15 00:04:07;;;;;;;14.90;8.25;;;;;;;8.26;92.35;100857.19;5033227;28;20033;-46
2021/05/15 00:06:33;;;;;;;17.27;8.13;;;;;;;8.08;92.71;100853.59;5036233;28;20115;-46
2021/05/15 00:08:58;;;;;;;15.43;8.02;;;;;;;8.04;93.11;100848.94;5037009;28;20380;-46
2021/05/15 00:11:24;;;;;;;15.48;8.10;;;;;;;8.05;92.80;100856.69;5034607;28;20499;-45
2021/05/15 00:13:50;;;;;;;14.27;7.80;;;;;;;7.95;93.38;100853.78;5034392;28;20120;-46
2021/05/15 00:16:15;;;;;;;15.45;7.93;;;;;;;7.98;92.70;100856.00;5031833;28;20025;-46
2021/05/15 00:18:41;;;;;;;17.13;8.48;;;;;;;7.81;93.62;100852.34;5034970;28;20040;-46
2021/05/15 00:21:08;;;;;;;18.83;9.25;;;;;;;7.68;94.01;100847.19;5033298;28;20086;-45
2021/05/15 00:23:34;;;;;;;19.88;8.18;;;;;;;7.76;93.58;100857.56;5034468;28;20028;-46
2021/05/15 00:26:00;;;;;;;13.93;7.85;;;;;;;7.72;93.23;100854.53;5032962;28;20319;-45
2021/05/15 00:28:29;;;;;;;14.40;7.35;;;;;;;7.61;93.15;100849.16;5035888;28;20112;-46
2021/05/15 00:30:55;;;;;;;13.77;7.15;;;;;;;7.63;92.95;100847.88;5030399;28;20029;-45
2021/05/15 00:33:21;;;;;;;13.35;6.80;;;;;;;7.56;93.24;100850.66;5031688;28;20356;-46
2021/05/15 00:35:46;;;;;;;17.13;8.20;;;;;;;7.45;93.49;100856.72;5033094;28;20029;-45
2021/05/15 00:38:12;;;;;;;16.17;8.15;;;;;;;7.29;94.23;100852.00;5033027;28;20051;-46
2021/05/15 00:40:38;;;;;;;17.13;7.57;;;;;;;7.40;93.58;100859.25;5037358;28;20021;-46
2021/05/15 00:43:05;;;;;;;15.38;7.70;;;;;;;7.39;93.43;100854.16;5032168;28;20025;-46
2021/05/15 00:45:31;;;;;;;20.05;8.38;;;;;;;7.34;93.54;100856.66;5037439;28;20036;-46
2021/05/15 00:47:57;;;;;;;19.55;8.35;;;;;;;7.30;93.41;100856.28;5036268;28;20428;-46
2021/05/15 00:50:22;;;;;;;19.40;8.98;;;;;;;7.20;94.37;100858.69;5039653;28;20025;-46
2021/05/15 00:52:48;;;;;;;16.25;7.78;;;;;;;7.19;94.49;100857.06;5035223;28;20098;-46
2021/05/15 00:55:14;;;;;;;18.23;8.68;;;;;;;7.13;94.41;100857.94;5031898;28;20025;-45
2021/05/15 00:57:41;;;;;;;17.38;8.70;;;;;;;7.09;94.64;100867.41;5035444;28;20035;-46
2021/05/15 01:00:09;;;;;;;16.85;8.27;;;;;;;7.11;94.45;100868.81;5033234;28;20513;-46
2021/05/15 01:02:35;;;;;;;20.95;9.63;;;;;;;7.10;94.40;100871.72;5034346;28;20028;-46
2021/05/15 01:05:00;;;;;;;15.80;8.07;;;;;;;7.12;94.18;100869.63;5033930;28;20486;-46
2021/05/15 01:07:27;;;;;;;19.75;8.60;;;;;;;7.09;94.23;100870.88;5040839;28;20079;-46
2021/05/15 01:09:52;;;;;;;20.17;8.50;;;;;;;7.03;94.59;100863.78;5031770;28;20032;-46
2021/05/15 01:12:18;;;;;;;17.98;8.25;;;;;;;7.01;94.51;100870.38;5037849;28;20029;-45
2021/05/15 01:14:43;;;;;;;19.13;9.05;;;;;;;7.03;94.33;100869.13;5035250;28;20535;-46
2021/05/15 01:17:10;;;;;;;21.08;8.65;;;;;;;6.98;94.11;100868.94;5035684;28;20206;-46
2021/05/15 01:19:36;;;;;;;19.30;8.52;;;;;;;6.94;94.43;100876.56;5036624;28;20178;-46
2021/05/15 01:22:14;;;;;;;18.40;8.65;;;;;;;6.88;94.22;100877.47;5033833;28;20025;-45
2021/05/15 01:24:40;;;;;;;18.55;8.63;;;;;;;6.86;94.50;100876.06;5030353;28;20037;-45
2021/05/15 01:27:08;;;;;;;25.40;9.25;;;;;;;6.83;94.39;100877.31;5031498;28;20080;-45
2021/05/15 01:29:34;;;;;;;18.95;8.70;;;;;;;6.78;94.85;100873.66;5039541;28;20441;-45
2021/05/15 01:31:59;;;;;;;20.08;8.07;;;;;;;6.81;94.63;100881.22;5033585;28;20497;-46
2021/05/15 01:34:25;;;;;;;13.27;7.22;;;;;;;6.84;94.55;100876.28;5037100;28;20127;-46
2021/05/15 01:36:51;;;;;;;18.60;9.00;;;;;;;6.71;95.27;100876.41;5035979;28;20087;-46
2021/05/15 01:39:16;;;;;;;16.67;8.45;;;;;;;6.66;95.34;100873.59;5034144;28;20120;-45
2021/05/15 01:41:43;;;;;;;18.13;9.90;;;;;;;6.63;95.34;100874.81;5034089;28;20063;-46
2021/05/15 01:44:09;;;;;;;16.98;9.05;;;;;;;6.58;95.06;100880.00;5033869;28;20040;-45
2021/05/15 01:46:35;;;;;;;19.35;8.32;;;;;;;6.51;95.15;100878.44;5039813;28;20104;-45
2021/05/15 01:49:00;;;;;;;22.98;9.35;;;;;;;6.53;95.11;100873.72;5036154;28;20437;-46
2021/05/15 01:51:26;;;;;;;17.90;8.32;;;;;;;6.47;94.91;100877.25;5037083;28;20032;-47
2021/05/15 01:53:52;;;;;;;16.95;8.18;;;;;;;6.42;95.02;100875.22;5038792;28;20028;-45
2021/05/15 01:56:26;;;;;;;18.42;8.55;;;;;;;6.42;94.83;100883.19;5043164;28;20056;-45
2021/05/15 01:58:52;;;;;;;21.20;9.23;;;;;;;6.35;94.86;100875.28;5041144;28;20561;-45
2021/05/15 02:01:22;;;;;;;22.05;9.25;;;;;;;6.26;95.88;100875.75;5038278;28;20075;-45
2021/05/15 02:03:49;;;;;;;20.55;10.13;;;;;;;6.27;95.60;100882.69;5036160;28;20029;-47
2021/05/15 02:06:15;;;;;;;23.52;10.63;;;;;;;6.15;96.24;100879.13;5035741;28;20039;-46
2021/05/15 02:08:42;;;;;;;24.05;9.68;;;;;;;6.04;96.49;100876.13;5040616;28;20142;-46
2021/05/15 02:11:09;;;;;;;21.38;9.25;;;;;;;6.15;95.89;100882.59;5037458;28;20033;-45
2021/05/15 02:13:35;;;;;;;17.33;8.63;;;;;;;6.17;95.77;100874.41;5042721;28;20462;-47
2021/05/15 02:16:01;;;;;;;18.08;8.02;;;;;;;6.16;95.64;100878.91;5032874;28;20112;-46
2021/05/15 02:18:27;;;;;;;20.60;9.07;;;;;;;6.17;95.26;100872.56;5041452;28;20029;-45
2021/05/15 02:20:54;;;;;;;17.13;8.10;;;;;;;6.23;94.92;100873.53;5038065;28;20494;-46
2021/05/15 02:23:20;;;;;;;17.95;9.15;;;;;;;6.17;94.69;100869.09;5042005;28;20033;-46
2021/05/15 02:25:47;;;;;;;22.40;9.25;;;;;;;6.17;94.59;100874.41;5037283;28;20098;-45
2021/05/15 02:28:14;;;;;;;20.55;9.70;;;;;;;6.25;94.30;100877.59;5037595;28;20117;-46
2021/05/15 02:30:39;;;;;;;17.13;8.40;;;;;;;6.22;94.17;100872.72;5037797;28;20269;-46
2021/05/15 02:33:05;;;;;;;18.25;9.05;;;;;;;6.24;94.30;100864.50;5035117;28;20439;-45
2021/05/15 02:35:31;;;;;;;17.60;8.18;;;;;;;6.18;94.82;100860.88;5040211;28;20033;-47
2021/05/15 02:37:57;;;;;;;19.40;9.07;;;;;;;6.27;94.71;100861.41;5033262;28;20086;-46
2021/05/15 02:40:24;;;;;;;23.17;9.13;;;;;;;6.15;96.03;100853.34;5045226;28;20031;-46
2021/05/15 02:42:51;;;;;;;16.08;8.55;;;;;;;6.23;95.99;100857.56;5047621;28;20048;-45
2021/05/15 02:45:19;;;;;;;22.95;9.93;;;;;;;6.09;96.73;100856.84;5040102;28;21492;-48
2021/05/15 02:47:46;;;;;;;20.67;8.93;;;;;;;6.11;96.94;100861.97;5043486;28;20024;-46
2021/05/15 02:50:14;;;;;;;21.52;9.38;;;;;;;6.18;97.11;100860.88;5042332;28;20029;-47
2021/05/15 02:52:40;;;;;;;18.13;9.00;;;;;;;6.38;96.31;100860.72;5038379;28;20032;-46
2021/05/15 02:55:08;;;;;;;16.75;8.35;;;;;;;6.51;95.88;100862.47;5041740;28;20685;-46
2021/05/15 02:57:35;;;;;;;19.90;9.45;;;;;;;6.44;96.42;100853.69;5041338;28;20032;-46
2021/05/15 03:00:02;;;;;;;18.63;9.38;;;;;;;6.31;97.63;100862.63;5041769;28;20033;-45
2021/05/15 03:02:27;;;;;;;17.20;8.85;;;;;;;6.46;97.18;100859.63;5038489;28;20232;-45
2021/05/15 03:04:52;;;;;;;18.15;8.65;;;;;;;6.42;97.65;100858.44;5041263;28;20158;-46
2021/05/15 03:07:18;;;;;;;18.40;8.70;;;;;;;6.55;97.23;100864.47;5040637;28;20028;-46
2021/05/15 03:09:45;;;;;;;18.52;8.63;;;;;;;6.49;97.40;100859.22;5042592;28;20037;-46
2021/05/15 03:12:11;;;;;;;16.90;8.05;;;;;;;6.56;97.42;100859.94;5035908;28;20033;-45
2021/05/15 03:14:37;;;;;;;16.67;8.73;;;;;;;6.53;97.62;100855.06;5035581;28;20021;-45
2021/05/15 03:17:03;;;;;;;17.50;8.98;;;;;;;6.67;97.01;100859.25;5034080;28;20114;-46
2021/05/15 03:19:29;;;;;;;19.00;8.75;;;;;;;6.58;97.61;100852.56;5034308;28;20128;-46
2021/05/15 03:21:54;;;;;;;18.73;9.05;;;;;;;6.73;97.07;100853.03;5034355;28;20082;-45
2021/05/15 03:24:20;;;;;;;23.23;9.82;;;;;;;6.73;97.24;100853.03;5031677;28;20029;-46
2021/05/15 03:26:45;;;;;;;18.88;9.18;;;;;;;6.85;96.46;100845.16;5030800;28;20100;-45
2021/05/15 03:29:11;;;;;;;20.13;8.95;;;;;;;6.69;97.26;100846.53;5031226;28;20371;-46
2021/05/15 03:31:36;;;;;;;23.80;10.50;;;;;;;6.56;97.86;100850.13;5034671;28;20048;-46
2021/05/15 03:34:02;;;;;;;18.50;9.63;;;;;;;6.60;98.43;100855.81;5031545;28;20196;-46
2021/05/15 03:36:28;;;;;;;14.52;8.43;;;;;;;6.83;97.52;100858.69;5031036;28;20025;-46
2021/05/15 03:38:53;;;;;;;22.20;9.68;;;;;;;6.87;97.07;100851.88;5032757;28;20036;-46
2021/05/15 03:41:19;;;;;;;15.90;8.57;;;;;;;7.01;96.36;100854.41;5030911;28;20029;-46
2021/05/15 03:43:44;;;;;;;16.45;8.32;;;;;;;7.03;96.03;100857.66;5031599;28;20032;-45
2021/05/15 03:46:10;;;;;;;17.75;8.23;;;;;;;7.05;96.20;100855.59;5033492;28;20036;-46
2021/05/15 03:48:35;;;;;;;14.90;7.75;;;;;;;7.23;95.30;100856.38;5031983;28;20251;-47
2021/05/15 03:51:01;;;;;;;14.00;7.93;;;;;;;7.21;94.90;100858.47;5033460;28;20303;-46
2021/05/15 03:53:26;;;;;;;16.20;7.80;;;;;;;7.31;94.80;100852.59;5030032;28;20113;-47
2021/05/15 03:55:51;;;;;;;18.30;8.05;;;;;;;7.24;95.47;100850.03;5032312;28;20036;-46
2021/05/15 03:58:17;;;;;;;16.65;8.60;;;;;;;7.09;95.69;100854.91;5032214;28;20479;-46
2021/05/15 04:00:43;;;;;;;13.65;8.15;;;;;;;7.35;94.97;100853.75;5033479;28;20021;-46
2021/05/15 04:03:09;;;;;;;15.82;8.18;;;;;;;7.42;94.83;100856.38;5027523;28;20060;-46
2021/05/15 04:05:35;;;;;;;14.75;7.85;;;;;;;7.42;95.05;100857.19;5034576;28;20063;-46
2021/05/15 04:08:00;;;;;;;14.18;8.05;;;;;;;7.54;94.36;100850.06;5033255;28;20138;-46
2021/05/15 04:10:26;;;;;;;15.80;7.95;;;;;;;7.41;94.61;100847.56;5031826;28;20029;-45
2021/05/15 04:18:09;;;;;;;16.85;8.30;;;;;;;7.24;96.14;100851.88;5030504;28;20036;-45
2021/05/15 04:20:37;;;;;;;16.92;7.47;;;;;;;7.19;96.17;100852.56;5032422;28;20044;-46
2021/05/15 04:23:02;;;;;;;16.73;8.32;;;;;;;7.21;97.14;100852.31;5029339;28;20029;-46
2021/05/15 04:25:28;;;;;;;13.75;7.88;;;;;;;7.23;96.95;100850.25;5034385;28;20024;-46
2021/05/15 04:27:55;;;;;;;16.98;7.40;;;;;;;7.27;96.86;100854.09;5029433;28;20025;-46
2021/05/15 04:30:21;;;;;;;13.98;7.93;;;;;;;7.41;95.89;100852.06;5029877;28;20183;-45
2021/05/15 04:32:46;;;;;;;17.30;7.53;;;;;;;7.43;96.16;100856.13;5033195;28;20665;-46
2021/05/15 04:35:12;;;;;;;17.08;8.02;;;;;;;7.35;96.27;100856.44;5029170;28;20036;-45
2021/05/15 04:37:37;;;;;;;13.00;7.10;;;;;;;7.31;96.08;100849.94;5034654;28;20033;-45
2021/05/15 04:40:05;;;;;;;14.35;7.05;;;;;;;7.42;95.94;100859.84;5030270;28;20403;-45
2021/05/15 04:42:30;;;;;;;16.83;8.50;;;;;;;7.60;95.15;100859.00;5030320;28;20037;-46
2021/05/15 04:44:56;;;;;;;16.45;7.53;;;;;;;7.91;93.76;100857.97;5031122;28;20021;-46
2021/05/15 04:47:21;;;;;;;12.80;7.88;;;;;;;8.17;92.71;100862.06;5032253;28;20016;-46
2021/05/15 04:49:47;;;;;;;14.20;7.22;;;;;;;8.32;91.46;100864.31;5032352;28;20025;-46
2021/05/15 04:52:12;;;;;;;17.20;7.50;;;;;;;8.53;90.47;100863.78;5032678;28;21071;-46
2021/05/15 04:54:38;;;;;;;13.75;6.68;;;;;;;8.63;90.01;100866.69;5030229;28;20048;-46
2021/05/15 04:57:04;;;;;;;13.02;7.13;;;;;;;8.68;90.04;100872.16;5031749;28;20083;-46
2021/05/15 04:59:32;;;;;;;10.23;5.22;;;;;;;8.92;88.52;100869.47;5032513;28;20150;-46
2021/05/15 05:01:58;;;;;;;11.05;6.20;;;;;;;9.15;87.64;100882.78;5032923;28;20024;-46
2021/05/15 05:04:23;;;;;;;12.68;6.60;;;;;;;8.58;88.81;100876.44;5031718;28;20388;-45
2021/05/15 05:06:49;;;;;;;14.38;6.53;;;;;;;8.93;88.85;100874.56;5034438;28;20435;-45
2021/05/15 05:09:14;;;;;;;10.45;6.78;;;;;;;8.97;88.43;100874.91;5027457;28;20036;-46
2021/05/15 05:11:40;;;;;;;13.43;6.57;;;;;;;8.87;87.91;100866.69;5030398;28;20033;-45
2021/05/15 05:14:05;;;;;;;12.23;6.93;;;;;;;9.06;88.15;100868.16;5029361;28;20123;-46
2021/05/15 05:16:31;;;;;;;11.32;6.22;;;;;;;8.82;89.08;100863.91;5031018;28;20025;-46
2021/05/15 05:18:56;;;;;;;9.88;5.35;;;;;;;8.89;89.14;100867.25;5029428;28;20398;-46
2021/05/15 05:21:22;;;;;;;13.70;6.15;;;;;;;9.17;87.97;100864.69;5031121;28;20021;-45
2021/05/15 05:23:47;;;;;;;9.77;6.38;;;;;;;8.83;87.99;100863.66;5031275;28;20036;-46
2021/05/15 05:26:13;;;;;;;8.63;6.18;;;;;;;9.01;87.55;100870.75;5027100;28;20029;-47
2021/05/15 05:28:41;;;;;;;9.73;5.65;;;;;;;8.89;87.63;100872.59;5029270;28;20467;-46
2021/05/15 05:31:07;;;;;;;12.68;6.28;;;;;;;8.77;87.75;100870.75;5030233;28;20032;-46
2021/05/15 05:33:33;;;;;;;10.90;5.97;;;;;;;9.03;88.14;100874.81;5028837;28;20394;-45
2021/05/15 05:35:59;;;;;;;10.70;6.60;;;;;;;9.00;87.69;100871.78;5026818;28;20444;-46
2021/05/15 05:38:25;;;;;;;11.50;5.93;;;;;;;9.03;85.24;100868.66;5028559;28;20061;-47
2021/05/15 05:40:50;;;;;;;9.98;5.90;;;;;;;9.51;84.61;100870.13;5029893;28;20068;-46
2021/05/15 05:43:16;;;;;;;9.15;5.72;;;;;;;9.53;85.44;100873.41;5030061;28;20021;-45
2021/05/15 05:45:41;;;;;;;9.43;5.28;;;;;;;9.43;84.04;100862.50;5028899;28;20530;-46
2021/05/15 05:48:07;;;;;;;9.77;5.28;;;;;;;9.50;85.14;100863.16;5029222;28;20116;-46
2021/05/15 05:50:33;;;;;;;9.23;5.10;;;;;;;9.60;84.65;100858.03;5025866;28;20037;-46
2021/05/15 05:52:58;;;;;;;9.50;5.65;;;;;;;9.94;84.23;100857.06;5033323;28;20682;-46
2021/05/15 05:55:24;;;;;;;10.45;5.70;;;;;;;9.97;84.16;100861.91;5027459;28;20037;-46
2021/05/15 05:57:50;;;;;;;9.02;5.95;;;;;;;10.14;81.62;100863.81;5029794;28;20128;-45
2021/05/15 06:00:16;;;;;;;8.32;5.10;;;;;;;9.99;82.99;100870.53;5032227;28;20070;-46
2021/05/15 06:02:41;;;;;;;8.43;5.20;;;;;;;10.25;81.53;100871.00;5027600;28;20036;-46
2021/05/15 06:05:08;;;;;;;8.48;5.45;;;;;;;10.26;82.14;100867.28;5029870;28;20025;-46
2021/05/15 06:07:33;;;;;;;8.48;5.68;;;;;;;10.00;80.68;100874.00;5030046;28;20445;-46
2021/05/15 06:09:59;;;;;;;7.80;4.75;;;;;;;10.25;82.12;100863.78;5027867;28;20128;-46
2021/05/15 06:12:25;;;;;;;8.35;5.63;;;;;;;10.43;82.46;100865.41;5028961;28;20036;-45
2021/05/15 06:14:50;;;;;;;8.88;5.28;;;;;;;10.68;80.79;100864.16;5025397;28;20067;-46
2021/05/15 06:17:16;;;;;;;7.15;5.13;;;;;;;10.82;78.96;100865.44;5028423;28;20017;-46
2021/05/15 06:19:44;;;;;;;7.80;5.47;;;;;;;10.81;77.85;100864.63;5030436;28;20488;-46
2021/05/15 06:22:11;;;;;;;10.50;5.25;;;;;;;10.69;77.91;100865.78;5027240;28;20080;-46
2021/05/15 06:24:39;;;;;;;7.97;5.50;;;;;;;10.79;78.99;100860.59;5028426;28;20087;-46
2021/05/15 06:27:06;;;;;;;8.52;4.63;;;;;;;11.33;77.08;100866.13;5024513;28;20025;-48
2021/05/15 06:29:32;;;;;;;7.25;5.15;;;;;;;11.55;75.65;100868.78;5025878;28;20048;-46
2021/05/15 06:31:58;;;;;;;6.38;4.00;;;;;;;11.69;73.33;100870.03;5024851;28;20029;-45
2021/05/15 06:34:23;;;;;;;7.65;5.03;;;;;;;11.94;74.10;100866.81;5026985;28;20025;-46
2021/05/15 06:36:49;;;;;;;7.20;4.50;;;;;;;11.27;74.28;100870.59;5025531;28;20035;-47
2021/05/15 06:39:14;;;;;;;8.30;5.03;;;;;;;11.85;74.35;100868.31;5027420;28;20029;-46
2021/05/15 06:41:39;;;;;;;9.05;3.80;;;;;;;12.13;73.86;100872.63;5031130;28;20029;-47
2021/05/15 06:44:05;;;;;;;7.63;3.90;;;;;;;12.40;72.24;100860.78;5031062;28;20025;-45
2021/05/15 06:46:31;;;;;;;6.13;3.78;;;;;;;12.21;71.78;100856.03;5030503;28;20109;-46
2021/05/15 06:48:56;;;;;;;5.47;4.07;;;;;;;12.64;71.34;100860.41;5028553;28;20095;-47
2021/05/15 06:51:22;;;;;;;7.95;4.53;;;;;;;12.39;73.32;100864.53;5029540;28;20021;-46
2021/05/15 06:53:47;;;;;;;5.75;3.15;;;;;;;12.62;71.44;100870.59;5029199;28;20033;-47
2021/05/15 06:56:13;;;;;;;7.07;4.00;;;;;;;12.67;72.40;100865.25;5029266;28;20051;-47
2021/05/15 06:58:41;;;;;;;6.63;3.97;;;;;;;12.67;72.03;100860.69;5030598;28;20085;-46
2021/05/15 07:01:07;;;;;;;8.65;3.80;;;;;;;12.99;70.93;100863.28;5032699;28;20021;-46
2021/05/15 07:03:32;;;;;;;6.28;3.35;;;;;;;12.57;70.16;100866.00;5030558;28;20403;-46
2021/05/15 07:05:58;;;;;;;3.65;2.30;;;;;;;13.07;69.41;100863.84;5029773;28;20479;-46
2021/05/15 07:08:23;;;;;;;3.08;2.35;;;;;;;13.28;68.03;100862.91;5030069;28;20026;-46
2021/05/15 07:10:49;;;;;;;4.10;2.33;;;;;;;13.42;67.63;100869.44;5028630;28;20032;-46
2021/05/15 07:13:14;;;;;;;4.82;2.80;;;;;;;13.67;67.47;100866.03;5031638;28;20507;-46
2021/05/15 07:15:40;;;;;;;2.95;2.38;;;;;;;13.78;65.83;100870.34;5031144;28;20557;-46
2021/05/15 07:18:05;;;;;;;2.35;2.00;;;;;;;13.81;65.67;100861.72;5027309;28;20036;-47
2021/05/15 07:20:31;;;;;;;2.13;1.92;;;;;;;14.13;65.34;100861.50;5028750;28;20021;-46
2021/05/15 07:22:56;;;;;;;2.13;1.67;;;;;;;14.13;62.89;100861.50;5029013;28;20056;-47
2021/05/15 07:25:22;;;;;;;4.47;2.33;;;;;;;14.06;63.30;100862.84;5031737;28;20056;-47
2021/05/15 07:27:48;;;;;;;29.08;17.20;;;;;;;14.15;63.90;100863.91;5031122;28;20029;-47
2021/05/15 07:30:14;;;;;;;11.60;7.35;;;;;;;13.99;62.84;100860.41;5031937;28;20070;-47
2021/05/15 07:32:39;;;;;;;6.47;3.05;;;;;;;13.71;64.39;100859.03;5030574;28;20025;-47
2021/05/15 07:35:06;;;;;;;3.83;2.65;;;;;;;14.21;62.84;100852.91;5031491;28;20049;-47
2021/05/15 07:37:32;;;;;;;2.83;2.22;;;;;;;14.24;64.52;100851.53;5029407;28;20034;-47
2021/05/15 07:39:57;;;;;;;3.63;2.50;;;;;;;14.31;64.20;100843.19;5033995;28;20083;-47
2021/05/15 07:42:23;;;;;;;4.32;3.45;;;;;;;14.21;65.89;100836.72;5031692;28;20029;-48
2021/05/15 07:44:48;;;;;;;5.13;3.47;;;;;;;14.14;63.86;100841.56;5028753;28;20048;-46
2021/05/15 07:47:13;;;;;;;8.23;4.38;;;;;;;14.56;63.22;100832.41;5028319;28;20191;-48
2021/05/15 07:49:39;;;;;;;6.13;3.67;;;;;;;14.67;64.00;100828.59;5029449;28;20036;-48
2021/05/15 07:52:04;;;;;;;5.40;3.80;;;;;;;14.73;63.42;100827.53;5030720;28;20039;-48
2021/05/15 07:54:30;;;;;;;5.22;4.15;;;;;;;14.80;63.90;100822.66;5030345;28;20028;-47
2021/05/15 07:56:56;;;;;;;5.97;3.67;;;;;;;15.32;62.42;100829.47;5031072;28;20120;-49
2021/05/15 07:59:21;;;;;;;6.50;3.85;;;;;;;15.47;62.34;100825.09;5031437;28;20021;-47
2021/05/15 08:01:48;;;;;;;7.75;3.33;;;;;;;14.86;62.31;100826.13;5032487;28;20479;-46
2021/05/15 08:04:14;;;;;;;5.25;3.65;;;;;;;14.96;62.94;100836.09;5033594;28;20055;-47
2021/05/15 08:06:39;;;;;;;13.00;3.80;;;;;;;14.88;62.22;100833.94;5040092;28;20235;-48
2021/05/15 08:09:05;;;;;;;5.82;3.15;;;;;;;15.47;61.54;100830.47;5039449;28;20025;-51
2021/05/15 08:11:32;;;;;;;5.30;4.00;;;;;;;15.01;62.71;100838.75;5039947;28;20037;-47
2021/05/15 08:13:58;;;;;;;8.93;4.25;;;;;;;15.48;61.16;100845.59;5036830;28;20053;-47
2021/05/15 08:16:23;;;;;;;12.43;5.15;;;;;;;15.32;61.09;100840.25;5037604;28;20056;-49
2021/05/15 08:18:49;;;;;;;8.75;5.85;;;;;;;15.19;61.54;100835.47;5037983;28;20494;-47
2021/05/15 08:21:14;;;;;;;7.00;4.80;;;;;;;14.84;61.00;100835.56;5036897;28;20025;-47
2021/05/15 08:23:40;;;;;;;9.57;5.25;;;;;;;14.95;62.35;100839.88;5036842;28;20087;-48
2021/05/15 08:26:09;;;;;;;7.45;4.72;;;;;;;14.95;62.87;100829.88;5034756;28;20025;-47
2021/05/15 08:28:35;;;;;;;7.20;4.60;;;;;;;15.15;62.02;100823.59;5042784;28;20016;-49
2021/05/15 08:31:02;;;;;;;6.88;4.47;;;;;;;15.05;62.08;100829.03;5036879;28;20079;-47
2021/05/15 08:33:27;;;;;;;5.80;4.65;;;;;;;15.56;60.82;100834.19;5038030;28;20059;-47
2021/05/15 08:35:53;;;;;;;7.72;4.65;;;;;;;16.02;60.10;100832.84;5030551;28;20425;-49
2021/05/15 08:38:18;;;;;;;12.25;5.65;;;;;;;16.60;58.66;100821.25;5031003;28;20025;-47
2021/05/15 08:40:44;;;;;;;8.70;6.05;;;;;;;16.52;57.95;100816.47;5032233;28;20037;-47
2021/05/15 08:43:12;;;;;;;7.68;5.22;;;;;;;15.99;57.50;100822.59;5034059;28;20043;-50
2021/05/15 08:45:38;;;;;;;9.10;5.30;;;;;;;15.72;58.70;100822.25;5036225;28;20258;-47
2021/05/15 08:48:05;;;;;;;11.40;5.40;;;;;;;16.51;57.77;100826.44;5030235;28;20139;-47
2021/05/15 08:50:32;;;;;;;8.32;5.35;;;;;;;17.01;54.84;100823.53;5034843;28;20029;-50
2021/05/15 08:52:59;;;;;;;9.95;6.55;;;;;;;17.27;55.80;100830.25;5037944;28;20033;-48
2021/05/15 08:55:31;;;;;;;48.20;28.27;;;;;;;17.15;55.41;100825.25;5032692;28;20033;-47
2021/05/15 08:57:58;;;;;;;11.15;7.55;;;;;;;17.02;54.38;100817.00;5036074;28;20425;-47
2021/05/15 09:00:31;;;;;;;9.27;6.15;;;;;;;17.71;53.96;100826.41;5035421;28;20021;-48
2021/05/15 09:02:59;;;;;;;9.80;6.10;;;;;;;17.70;52.78;100824.81;5034977;28;20025;-47
2021/05/15 09:05:27;;;;;;;9.05;6.03;;;;;;;17.56;52.88;100826.59;5035895;28;20094;-49
2021/05/15 09:07:58;;;;;;;8.63;6.03;;;;;;;18.13;53.00;100817.34;5030535;28;20104;-48
2021/05/15 09:10:26;;;;;;;7.53;5.78;;;;;;;17.91;51.94;100811.75;5038031;28;20033;-46
2021/05/15 09:12:52;;;;;;;11.68;6.50;;;;;;;17.70;51.98;100806.63;5028656;28;20029;-48
2021/05/15 09:15:18;;;;;;;10.77;6.32;;;;;;;17.90;53.05;100810.13;5025516;28;20021;-47
2021/05/15 09:17:50;;;;;;;8.60;6.72;;;;;;;17.31;54.64;100809.59;5028365;28;20256;-47
2021/05/15 09:20:28;;;;;;;18.38;8.75;;;;;;;17.84;53.00;100795.06;5030977;28;20394;-47
2021/05/15 09:22:54;;;;;;;11.38;6.68;;;;;;;17.79;51.71;100791.34;5030323;28;20060;-47
2021/05/15 09:25:20;;;;;;;11.30;6.70;;;;;;;17.45;55.10;100788.84;5029729;28;20078;-48
2021/05/15 09:27:46;;;;;;;10.55;6.55;;;;;;;17.83;54.56;100782.63;5029956;28;20429;-47
2021/05/15 09:30:13;;;;;;;10.27;5.97;;;;;;;17.74;53.76;100783.28;5033167;28;20028;-48
2021/05/15 09:32:39;;;;;;;8.85;6.72;;;;;;;18.22;51.20;100784.94;5025151;28;20396;-47
2021/05/15 09:35:06;;;;;;;14.23;7.38;;;;;;;18.16;52.22;100791.56;5029488;28;20044;-47
2021/05/15 09:37:36;;;;;;;13.88;7.32;;;;;;;18.74;52.03;100772.06;5026813;28;20025;-47
2021/05/15 09:40:21;;;;;;;11.85;7.05;;;;;;;18.97;50.94;100787.34;5024747;28;20079;-47
2021/05/15 09:42:48;;;;;;;11.13;6.25;;;;;;;18.37;50.89;100774.63;5027502;28;20021;-49
2021/05/15 09:45:28;;;;;;;10.23;7.10;;;;;;;18.26;53.55;100775.91;5028910;28;20391;-49
2021/05/15 09:48:01;;;;;;;7.22;6.38;;;;;;;18.09;51.87;100779.19;5026101;28;20491;-51
2021/05/15 09:50:33;;;;;;;8.93;6.72;;;;;;;18.49;51.10;100770.59;5029227;28;20065;-50
2021/05/15 09:53:11;;;;;;;10.35;6.07;;;;;;;18.60;47.61;100772.03;5027674;28;20471;-47
2021/05/15 09:55:39;;;;;;;8.20;5.72;;;;;;;18.97;48.17;100763.69;5025581;28;20090;-48
2021/05/15 09:58:06;;;;;;;7.68;6.05;;;;;;;19.09;48.91;100771.34;5029843;28;20576;-47
2021/05/15 10:00:50;;;;;;;9.05;6.20;;;;;;;19.19;49.14;100775.72;5034768;28;20025;-49
2021/05/15 10:03:21;;;;;;;19.15;12.60;;;;;;;19.26;48.88;100771.50;5026116;28;20656;-47
2021/05/15 10:06:08;;;;;;;9.15;7.22;;;;;;;18.01;50.31;100774.44;5029448;28;20672;-46
2021/05/15 10:08:36;;;;;;;9.18;6.40;;;;;;;17.64;51.93;100778.00;5029879;28;20074;-51
2021/05/15 10:11:05;;;;;;;9.93;7.10;;;;;;;18.26;52.98;100761.53;5022889;28;20039;-47
2021/05/15 10:13:35;;;;;;;9.13;6.43;;;;;;;19.36;50.98;100766.94;5029720;28;20079;-47
2021/05/15 10:16:01;;;;;;;6.80;5.55;;;;;;;19.72;50.02;100761.50;5028802;28;20036;-50
2021/05/15 10:18:28;;;;;;;8.38;6.20;;;;;;;20.29;48.50;100758.97;5034826;28;20030;-48
2021/05/15 10:20:54;;;;;;;10.07;5.82;;;;;;;20.49;46.41;100758.50;5035296;28;20031;-50
2021/05/15 10:23:19;;;;;;;7.10;4.50;;;;;;;20.74;45.75;100763.22;5035152;28;20028;-48
2021/05/15 10:25:46;;;;;;;8.13;5.22;;;;;;;20.44;45.81;100758.59;5034389;28;20635;-48
2021/05/15 10:28:12;;;;;;;8.05;5.63;;;;;;;20.68;45.11;100755.50;5034368;28;20023;-48
2021/05/15 10:30:38;;;;;;;7.10;5.40;;;;;;;20.86;46.14;100742.75;5033280;28;20155;-49
2021/05/15 10:33:09;;;;;;;6.65;4.38;;;;;;;20.13;46.46;100743.09;5032135;28;20111;-49
2021/05/15 10:35:44;;;;;;;6.45;5.32;;;;;;;20.17;46.31;100738.63;5037788;28;20035;-48
2021/05/15 10:38:13;;;;;;;8.38;5.47;;;;;;;19.41;46.78;100748.63;5034768;28;20491;-47
2021/05/15 10:40:46;;;;;;;8.48;5.88;;;;;;;18.93;48.00;100742.91;5034945;28;20028;-48
2021/05/15 10:43:12;;;;;;;6.45;5.38;;;;;;;19.43;47.28;100721.16;5028765;28;20825;-48
2021/05/15 10:45:42;;;;;;;8.07;5.05;;;;;;;20.00;45.97;100724.91;5035981;28;20129;-48
2021/05/15 10:48:25;;;;;;;6.15;5.22;;;;;;;20.33;43.74;100722.69;5035285;28;20026;-51
2021/05/15 10:50:53;;;;;;;5.68;4.88;;;;;;;20.51;45.28;100724.38;5030314;28;20123;-47
2021/05/15 10:53:32;;;;;;;7.10;5.47;;;;;;;20.12;45.35;100717.00;5032912;28;20041;-48
2021/05/15 10:56:18;;;;;;;7.30;5.35;;;;;;;20.46;45.38;100710.09;5030107;28;20025;-47
2021/05/15 10:58:50;;;;;;;17.60;13.35;;;;;;;20.84;44.29;100704.94;5032179;28;20633;-49
2021/05/15 11:01:20;;;;;;;6.28;5.13;;;;;;;19.75;45.92;100712.78;5031198;28;20511;-47
2021/05/15 11:03:47;;;;;;;12.07;10.05;;;;;;;20.22;46.94;100700.38;5032502;28;20085;-49
2021/05/15 11:06:14;;;;;;;7.30;5.60;;;;;;;21.73;45.12;100703.53;5034460;28;20486;-48
2021/05/15 11:08:41;;;;;;;6.45;4.88;;;;;;;22.46;43.32;100687.91;5027407;28;20290;-47
2021/05/15 11:11:10;;;;;;;7.05;4.50;;;;;;;21.68;43.19;100695.50;5031071;28;20037;-48
2021/05/15 11:13:51;;;;;;;5.28;4.75;;;;;;;21.00;45.11;100694.38;5027564;28;20025;-48
2021/05/15 11:16:17;;;;;;;7.03;4.70;;;;;;;21.36;44.58;100692.19;5031424;28;20547;-47
2021/05/15 11:18:43;;;;;;;5.32;4.22;;;;;;;21.01;43.42;100696.81;5027072;28;20029;-48
2021/05/15 11:21:09;;;;;;;6.38;4.45;;;;;;;21.02;44.36;100692.16;5028096;28;20067;-47
2021/05/15 11:23:46;;;;;;;5.53;4.43;;;;;;;20.26;45.08;100695.13;5027593;28;20029;-47
2021/05/15 11:26:18;;;;;;;5.20;4.70;;;;;;;19.64;45.59;100688.88;5027252;28;20025;-47
2021/05/15 11:28:44;;;;;;;4.65;3.75;;;;;;;19.58;47.18;100680.88;5026759;28;20320;-47